createdAt,value
2016-07-23T00:00:48.924Z,99.99
2016-07-23T00:01:49.002Z,99.99
2016-07-23T00:02:48.759Z,99.99
2016-07-23T00:03:49.030Z,99.99
2016-07-23T00:04:49.799Z,99.99
2016-07-23T00:05:48.771Z,99.99
2016-07-23T00:06:49.017Z,99.99
2016-07-23T00:07:48.638Z,99.99
2016-07-23T00:08:49.229Z,99.99
2016-07-23T00:09:48.562Z,99.99
2016-07-23T00:10:48.532Z,99.99
2016-07-23T00:11:48.648Z,99.99
2016-07-23T00:12:48.710Z,99.99
2016-07-23T00:13:48.525Z,99.99
2016-07-23T00:14:48.501Z,99.99
2016-07-23T00:15:48.520Z,99.99
2016-07-23T00:16:48.514Z,99.99
2016-07-23T00:17:48.517Z,99.99
2016-07-23T00:18:48.503Z,99.99
2016-07-23T00:19:48.500Z,99.99
2016-07-23T00:20:48.517Z,99.99
2016-07-23T00:21:48.519Z,99.99
2016-07-23T00:22:48.512Z,99.99
2016-07-23T00:23:48.501Z,99.99
2016-07-23T00:24:48.542Z,99.99
2016-07-23T00:25:48.533Z,99.99
2016-07-23T00:26:48.541Z,99.99
2016-07-23T00:27:48.521Z,99.99
2016-07-23T00:28:48.515Z,99.99
2016-07-23T00:29:48.525Z,99.99
2016-07-23T00:30:48.501Z,99.99
2016-07-23T00:31:48.529Z,99.99
2016-07-23T00:32:48.530Z,99.99
2016-07-23T00:33:48.521Z,99.99
2016-07-23T00:34:48.541Z,99.99
2016-07-23T00:35:48.524Z,99.99
2016-07-23T00:36:48.528Z,99.99
2016-07-23T00:37:48.504Z,99.99
2016-07-23T00:38:48.511Z,99.99
2016-07-23T00:39:48.517Z,99.99
2016-07-23T00:40:48.535Z,99.99
2016-07-23T00:41:48.529Z,99.99
2016-07-23T00:42:48.540Z,99.99
2016-07-23T00:43:48.517Z,99.99
2016-07-23T00:44:48.511Z,99.99
2016-07-23T00:45:48.549Z,99.99
2016-07-23T00:46:48.526Z,99.99
2016-07-23T00:47:48.541Z,99.99
2016-07-23T00:48:48.549Z,99.99
2016-07-23T00:49:48.525Z,99.99
2016-07-23T00:50:48.521Z,99.99
2016-07-23T00:51:48.494Z,99.99
2016-07-23T00:52:48.526Z,99.99
2016-07-23T00:53:48.553Z,99.99
2016-07-23T00:54:48.552Z,99.99
2016-07-23T00:55:48.502Z,99.99
2016-07-23T00:56:48.515Z,99.99
2016-07-23T00:57:48.521Z,99.99
2016-07-23T00:58:48.552Z,99.99
2016-07-23T00:59:48.585Z,99.99
2016-07-23T01:00:48.533Z,99.99
2016-07-23T01:01:48.519Z,99.99
2016-07-23T01:02:48.533Z,99.99
2016-07-23T01:03:48.603Z,99.99
2016-07-23T01:04:48.550Z,99.99
2016-07-23T01:05:48.537Z,99.99
2016-07-23T01:06:48.532Z,99.99
2016-07-23T01:07:48.520Z,99.99
2016-07-23T01:08:48.534Z,99.99
2016-07-23T01:09:48.541Z,99.99
2016-07-23T01:10:48.544Z,99.99
2016-07-23T01:11:48.554Z,99.99
2016-07-23T01:12:48.534Z,99.99
2016-07-23T01:13:48.543Z,99.99
2016-07-23T01:14:48.540Z,99.99
2016-07-23T01:15:48.537Z,99.99
2016-07-23T01:16:48.579Z,99.99
2016-07-23T01:17:48.554Z,99.99
2016-07-23T01:18:48.570Z,99.99
2016-07-23T01:19:48.528Z,99.99
2016-07-23T01:20:48.532Z,99.99
2016-07-23T01:21:48.566Z,99.99
2016-07-23T01:22:48.560Z,99.99
2016-07-23T01:23:48.551Z,99.99
2016-07-23T01:24:48.528Z,99.99
2016-07-23T01:25:48.521Z,99.99
2016-07-23T01:26:48.554Z,99.99
2016-07-23T01:27:48.536Z,99.99
2016-07-23T01:28:48.534Z,99.99
2016-07-23T01:29:48.515Z,99.99
2016-07-23T01:30:48.570Z,99.99
2016-07-23T01:31:48.537Z,99.99
2016-07-23T01:32:48.559Z,99.99
2016-07-23T01:33:48.564Z,99.99
2016-07-23T01:34:48.535Z,99.99
2016-07-23T01:35:48.569Z,99.99
2016-07-23T01:36:48.540Z,99.99
2016-07-23T01:37:48.608Z,99.99
2016-07-23T01:38:48.559Z,99.99
2016-07-23T01:39:48.555Z,99.99
2016-07-23T01:40:48.563Z,99.99
2016-07-23T01:41:48.539Z,99.99
2016-07-23T01:42:48.578Z,99.99
2016-07-23T01:43:48.565Z,99.99
2016-07-23T01:44:48.571Z,99.99
2016-07-23T01:45:48.553Z,99.99
2016-07-23T01:46:48.554Z,99.99
2016-07-23T01:47:48.549Z,99.99
2016-07-23T01:48:48.573Z,99.99
2016-07-23T01:49:51.788Z,99.99
2016-07-23T01:50:48.579Z,99.99
2016-07-23T01:51:48.549Z,99.99
2016-07-23T01:52:48.526Z,99.99
2016-07-23T01:53:48.553Z,99.99
2016-07-23T01:54:48.594Z,99.99
2016-07-23T01:55:48.581Z,99.99
2016-07-23T01:56:48.577Z,99.99
2016-07-23T01:57:48.557Z,99.99
2016-07-23T01:58:48.542Z,99.99
2016-07-23T01:59:48.548Z,99.99
2016-07-23T02:00:48.570Z,99.99
2016-07-23T02:01:48.573Z,99.99
2016-07-23T02:02:48.570Z,99.99
2016-07-23T02:03:48.574Z,99.99
2016-07-23T02:04:48.581Z,99.99
2016-07-23T02:05:48.578Z,99.99
2016-07-23T02:06:48.580Z,99.99
2016-07-23T02:07:48.542Z,99.99
2016-07-23T02:08:48.562Z,99.99
2016-07-23T02:09:48.597Z,99.99
2016-07-23T02:10:48.665Z,99.99
2016-07-23T02:11:48.570Z,99.99
2016-07-23T02:12:48.565Z,99.99
2016-07-23T02:13:48.561Z,99.99
2016-07-23T02:14:48.596Z,99.99
2016-07-23T02:15:48.578Z,99.99
2016-07-23T02:16:48.540Z,99.99
2016-07-23T02:17:48.601Z,99.99
2016-07-23T02:18:48.581Z,99.99
2016-07-23T02:19:48.564Z,99.99
2016-07-23T02:20:48.592Z,99.99
2016-07-23T02:21:48.574Z,99.99
2016-07-23T02:22:48.578Z,99.99
2016-07-23T02:23:48.550Z,99.99
2016-07-23T02:24:48.590Z,99.99
2016-07-23T02:25:48.607Z,99.99
2016-07-23T02:26:48.606Z,99.99
2016-07-23T02:27:48.587Z,99.99
2016-07-23T02:28:48.600Z,99.99
2016-07-23T02:29:48.578Z,99.99
2016-07-23T02:30:48.602Z,99.99
2016-07-23T02:31:48.582Z,99.99
2016-07-23T02:32:48.587Z,99.99
2016-07-23T02:33:48.595Z,99.99
2016-07-23T02:34:48.582Z,99.99
2016-07-23T02:35:48.585Z,99.99
2016-07-23T02:36:48.570Z,99.99
2016-07-23T02:37:48.569Z,99.99
2016-07-23T02:38:48.580Z,99.99
2016-07-23T02:39:48.575Z,99.99
2016-07-23T02:40:48.595Z,99.99
2016-07-23T02:41:48.590Z,99.99
2016-07-23T02:42:48.571Z,99.99
2016-07-23T02:43:48.572Z,99.99
2016-07-23T02:44:48.611Z,99.99
2016-07-23T02:45:48.589Z,99.99
2016-07-23T02:46:48.601Z,99.99
2016-07-23T02:47:48.582Z,99.99
2016-07-23T02:48:48.622Z,99.99
2016-07-23T02:49:48.592Z,99.99
2016-07-23T02:50:48.571Z,99.99
2016-07-23T02:51:48.579Z,99.99
2016-07-23T02:52:48.614Z,99.99
2016-07-23T02:53:48.595Z,99.99
2016-07-23T02:54:48.579Z,99.99
2016-07-23T02:55:48.593Z,99.99
2016-07-23T02:56:48.610Z,99.99
2016-07-23T02:57:48.609Z,99.99
2016-07-23T02:58:48.603Z,99.99
2016-07-23T02:59:48.588Z,99.99
2016-07-23T03:00:48.643Z,99.99
2016-07-23T03:01:48.603Z,99.99
2016-07-23T03:02:48.593Z,99.99
2016-07-23T03:03:48.612Z,99.99
2016-07-23T03:04:48.592Z,99.99
2016-07-23T03:05:48.600Z,99.99
2016-07-23T03:06:48.603Z,99.99
2016-07-23T03:07:48.596Z,99.99
2016-07-23T03:08:48.603Z,99.99
2016-07-23T03:09:48.578Z,99.99
2016-07-23T03:10:48.601Z,99.99
2016-07-23T03:11:48.619Z,99.99
2016-07-23T03:12:48.584Z,99.99
2016-07-23T03:13:48.604Z,99.99
2016-07-23T03:14:48.598Z,99.99
2016-07-23T03:15:48.595Z,99.99
2016-07-23T03:16:48.615Z,99.99
2016-07-23T03:17:48.583Z,99.99
2016-07-23T03:18:48.617Z,99.99
2016-07-23T03:19:48.612Z,99.99
2016-07-23T03:20:48.589Z,99.99
2016-07-23T03:21:48.593Z,99.99
2016-07-23T03:22:48.588Z,99.99
2016-07-23T03:23:48.591Z,99.99
2016-07-23T03:24:48.613Z,99.99
2016-07-23T03:25:48.621Z,99.99
2016-07-23T03:26:48.597Z,99.99
2016-07-23T03:27:48.623Z,99.99
2016-07-23T03:28:48.625Z,99.99
2016-07-23T03:29:48.616Z,99.99
2016-07-23T03:30:48.598Z,99.99
2016-07-23T03:31:48.605Z,99.99
2016-07-23T03:32:48.636Z,99.99
2016-07-23T03:33:48.619Z,99.99
2016-07-23T03:34:48.626Z,99.99
2016-07-23T03:35:48.623Z,99.99
2016-07-23T03:36:48.630Z,99.99
2016-07-23T03:37:48.587Z,99.99
2016-07-23T03:38:48.623Z,99.99
2016-07-23T03:39:48.607Z,99.99
2016-07-23T03:40:48.616Z,99.99
2016-07-23T03:41:48.627Z,99.99
2016-07-23T03:42:48.598Z,99.99
2016-07-23T03:43:48.611Z,99.99
2016-07-23T03:44:48.642Z,99.99
2016-07-23T03:45:48.615Z,99.99
2016-07-23T03:46:48.622Z,99.99
2016-07-23T03:47:48.643Z,99.99
2016-07-23T03:48:48.594Z,99.99
2016-07-23T03:49:48.608Z,99.99
2016-07-23T03:50:48.634Z,99.99
2016-07-23T03:51:48.628Z,99.99
2016-07-23T03:52:48.617Z,99.99
2016-07-23T03:53:48.598Z,99.99
2016-07-23T03:54:48.628Z,99.99
2016-07-23T03:55:48.613Z,99.99
2016-07-23T03:56:48.596Z,99.99
2016-07-23T03:57:48.610Z,99.99
2016-07-23T03:58:48.606Z,99.99
2016-07-23T03:59:48.646Z,99.99
2016-07-23T04:00:48.645Z,99.99
2016-07-23T04:01:48.622Z,99.99
2016-07-23T04:02:48.617Z,99.99
2016-07-23T04:03:48.621Z,99.99
2016-07-23T04:04:48.604Z,99.99
2016-07-23T04:05:48.642Z,99.99
2016-07-23T04:06:48.616Z,99.99
2016-07-23T04:07:48.642Z,99.99
2016-07-23T04:08:48.629Z,99.99
2016-07-23T04:09:48.616Z,99.99
2016-07-23T04:10:48.617Z,99.99
2016-07-23T04:11:48.690Z,99.99
2016-07-23T04:12:48.620Z,99.99
2016-07-23T04:13:48.625Z,99.99
2016-07-23T04:14:48.604Z,99.99
2016-07-23T04:15:48.634Z,99.99
2016-07-23T04:16:48.626Z,99.99
2016-07-23T04:17:48.616Z,99.99
2016-07-23T04:18:48.662Z,99.99
2016-07-23T04:19:48.630Z,99.99
2016-07-23T04:20:48.651Z,99.99
2016-07-23T04:21:48.646Z,99.99
2016-07-23T04:22:48.632Z,99.99
2016-07-23T04:23:48.651Z,99.99
2016-07-23T04:24:48.665Z,99.99
2016-07-23T04:25:48.655Z,99.99
2016-07-23T04:26:48.623Z,99.99
2016-07-23T04:27:48.631Z,99.99
2016-07-23T04:28:48.648Z,99.99
2016-07-23T04:29:48.654Z,99.99
2016-07-23T04:30:48.627Z,99.99
2016-07-23T04:31:48.649Z,99.99
2016-07-23T04:32:48.629Z,99.99
2016-07-23T04:33:48.632Z,99.99
2016-07-23T04:34:48.653Z,99.99
2016-07-23T04:35:48.641Z,99.99
2016-07-23T04:36:48.657Z,99.99
2016-07-23T04:37:48.628Z,99.99
2016-07-23T04:38:48.643Z,99.99
2016-07-23T04:39:48.633Z,99.99
2016-07-23T04:40:48.664Z,99.99
2016-07-23T04:41:48.648Z,99.99
2016-07-23T04:42:48.653Z,99.99
2016-07-23T04:43:48.639Z,99.99
2016-07-23T04:44:48.657Z,99.99
2016-07-23T04:45:48.653Z,99.99
2016-07-23T04:46:48.670Z,99.99
2016-07-23T04:47:48.678Z,99.99
2016-07-23T04:48:48.650Z,99.99
2016-07-23T04:49:48.677Z,99.99
2016-07-23T04:50:48.667Z,99.99
2016-07-23T04:51:48.633Z,99.99
2016-07-23T04:52:48.653Z,99.99
2016-07-23T04:53:48.645Z,99.99
2016-07-23T04:54:48.680Z,99.99
2016-07-23T04:55:48.673Z,99.99
2016-07-23T04:56:48.899Z,99.99
2016-07-23T04:57:48.671Z,99.99
2016-07-23T04:58:48.663Z,99.99
2016-07-23T04:59:48.652Z,99.99
2016-07-23T05:00:48.665Z,99.99
2016-07-23T05:01:48.672Z,99.99
2016-07-23T05:02:48.678Z,99.99
2016-07-23T05:03:48.648Z,99.99
2016-07-23T05:04:48.673Z,99.99
2016-07-23T05:05:48.638Z,99.99
2016-07-23T05:06:48.669Z,99.99
2016-07-23T05:07:48.663Z,99.99
2016-07-23T05:08:48.670Z,99.99
2016-07-23T05:09:48.669Z,99.99
2016-07-23T05:10:48.657Z,99.99
2016-07-23T05:11:48.663Z,99.99
2016-07-23T05:12:48.681Z,99.99
2016-07-23T05:13:48.658Z,99.99
2016-07-23T05:14:48.664Z,99.99
2016-07-23T05:15:48.645Z,99.99
2016-07-23T05:16:48.695Z,99.99
2016-07-23T05:17:48.686Z,99.99
2016-07-23T05:18:48.688Z,99.99
2016-07-23T05:19:48.667Z,99.99
2016-07-23T05:20:48.690Z,99.99
2016-07-23T05:21:48.670Z,99.99
2016-07-23T05:22:48.679Z,99.99
2016-07-23T05:23:48.658Z,99.99
2016-07-23T05:24:48.647Z,99.99
2016-07-23T05:25:48.738Z,99.99
2016-07-23T05:26:48.684Z,99.99
2016-07-23T05:27:48.663Z,99.99
2016-07-23T05:28:48.697Z,99.99
2016-07-23T05:29:48.696Z,99.99
2016-07-23T05:30:48.698Z,99.99
2016-07-23T05:31:48.706Z,99.99
2016-07-23T05:32:48.669Z,99.99
2016-07-23T05:33:48.849Z,99.99
2016-07-23T05:34:48.674Z,99.99
2016-07-23T05:35:48.694Z,99.99
2016-07-23T05:36:48.690Z,99.99
2016-07-23T05:37:48.701Z,99.99
2016-07-23T05:38:48.668Z,99.99
2016-07-23T05:39:48.696Z,99.99
2016-07-23T05:40:48.658Z,99.99
2016-07-23T05:41:48.715Z,99.99
2016-07-23T05:42:48.689Z,99.99
2016-07-23T05:43:48.679Z,99.99
2016-07-23T05:44:48.965Z,99.99
2016-07-23T05:45:48.663Z,99.99
2016-07-23T05:46:48.665Z,99.99
2016-07-23T05:47:48.659Z,99.99
2016-07-23T05:48:48.670Z,99.99
2016-07-23T05:49:48.693Z,99.99
2016-07-23T05:50:48.696Z,99.99
2016-07-23T05:51:48.690Z,99.99
2016-07-23T05:52:48.684Z,99.99
2016-07-23T05:53:48.694Z,99.99
2016-07-23T05:54:48.678Z,99.99
2016-07-23T05:55:48.682Z,99.99
2016-07-23T05:56:48.691Z,99.99
2016-07-23T05:57:48.721Z,99.99
2016-07-23T05:58:48.663Z,99.99
2016-07-23T05:59:48.704Z,99.99
2016-07-23T06:00:48.692Z,99.99
2016-07-23T06:01:48.712Z,99.99
2016-07-23T06:02:51.132Z,99.99
2016-07-23T06:03:48.689Z,99.99
2016-07-23T06:04:48.703Z,99.99
2016-07-23T06:05:49.014Z,99.99
2016-07-23T06:06:48.735Z,99.99
2016-07-23T06:07:48.709Z,99.99
2016-07-23T06:08:48.679Z,99.99
2016-07-23T06:09:48.702Z,99.99
2016-07-23T06:10:48.751Z,99.99
2016-07-23T06:11:48.733Z,99.99
2016-07-23T06:12:48.709Z,99.99
2016-07-23T06:13:48.698Z,99.99
2016-07-23T06:14:48.702Z,99.99
2016-07-23T06:15:48.694Z,99.99
2016-07-23T06:16:48.720Z,99.99
2016-07-23T06:17:48.990Z,99.99
2016-07-23T06:18:48.701Z,99.99
2016-07-23T06:19:48.719Z,99.99
2016-07-23T06:20:48.708Z,99.99
2016-07-23T06:21:48.694Z,99.99
2016-07-23T06:22:48.717Z,99.99
2016-07-23T06:23:48.716Z,99.99
2016-07-23T06:24:48.734Z,99.99
2016-07-23T06:25:48.726Z,99.99
2016-07-23T06:26:48.720Z,99.99
2016-07-23T06:27:48.711Z,99.99
2016-07-23T06:28:48.708Z,99.99
2016-07-23T06:29:48.725Z,99.99
2016-07-23T06:30:48.724Z,99.99
2016-07-23T06:31:48.692Z,99.99
2016-07-23T06:32:48.708Z,99.99
2016-07-23T06:33:48.720Z,99.99
2016-07-23T06:34:48.683Z,99.99
2016-07-23T06:35:48.722Z,99.99
2016-07-23T06:36:48.709Z,99.99
2016-07-23T06:37:48.721Z,99.99
2016-07-23T06:38:48.755Z,99.99
2016-07-23T06:39:48.734Z,99.99
2016-07-23T06:40:48.737Z,99.99
2016-07-23T06:41:48.738Z,99.99
2016-07-23T06:42:48.728Z,99.99
2016-07-23T06:43:48.750Z,99.99
2016-07-23T06:44:49.186Z,99.99
2016-07-23T06:45:50.216Z,99.99
2016-07-23T06:46:48.716Z,99.99
2016-07-23T06:47:48.737Z,99.99
2016-07-23T06:48:48.759Z,99.99
2016-07-23T06:49:48.813Z,99.99
2016-07-23T06:50:48.704Z,99.99
2016-07-23T06:51:48.724Z,99.99
2016-07-23T06:52:48.741Z,99.99
2016-07-23T06:53:48.713Z,99.99
2016-07-23T06:54:48.708Z,99.99
2016-07-23T06:55:48.735Z,99.99
2016-07-23T06:56:48.748Z,99.99
2016-07-23T06:57:48.744Z,99.99
2016-07-23T06:58:48.729Z,99.99
2016-07-23T06:59:48.755Z,99.74
2016-07-23T07:00:48.707Z,99.16
2016-07-23T07:01:49.821Z,98.58
2016-07-23T07:02:48.733Z,98.39
2016-07-23T07:03:48.728Z,99.36
2016-07-23T07:04:48.716Z,99.07
2016-07-23T07:05:48.780Z,99.65
2016-07-23T07:06:48.735Z,99.94
2016-07-23T07:07:48.742Z,99.99
2016-07-23T07:08:48.726Z,99.99
2016-07-23T07:09:48.790Z,99.99
2016-07-23T07:10:48.743Z,99.99
2016-07-23T07:11:48.811Z,99.99
2016-07-23T07:12:48.782Z,99.99
2016-07-23T07:13:48.773Z,99.99
2016-07-23T07:14:48.738Z,99.99
2016-07-23T07:15:48.744Z,99.26
2016-07-23T07:16:48.757Z,99.26
2016-07-23T07:17:48.738Z,98.3
2016-07-23T07:18:48.751Z,98.44
2016-07-23T07:19:48.753Z,97.47
2016-07-23T07:20:48.783Z,97.19
2016-07-23T07:21:48.753Z,97.14
2016-07-23T07:22:48.773Z,98.15
2016-07-23T07:23:48.745Z,98.15
2016-07-23T07:24:48.738Z,99.21
2016-07-23T07:25:48.749Z,99.16
2016-07-23T07:26:48.717Z,98.15
2016-07-23T07:27:48.751Z,97.86
2016-07-23T07:28:48.797Z,98.05
2016-07-23T07:29:49.922Z,97.86
2016-07-23T07:30:48.747Z,97.77
2016-07-23T07:31:48.739Z,97.67
2016-07-23T07:32:48.728Z,97.96
2016-07-23T07:33:48.756Z,97.91
2016-07-23T07:34:48.742Z,98.15
2016-07-23T07:35:48.752Z,98.93
2016-07-23T07:36:48.732Z,98.63
2016-07-23T07:37:48.739Z,98.3
2016-07-23T07:38:48.732Z,99.02
2016-07-23T07:39:48.768Z,99.89
2016-07-23T07:40:50.116Z,99.79
2016-07-23T07:41:48.771Z,99.31
2016-07-23T07:42:49.105Z,98.97
2016-07-23T07:43:48.741Z,98.78
2016-07-23T07:44:48.773Z,98.97
2016-07-23T07:45:48.773Z,97.91
2016-07-23T07:46:48.775Z,98.2
2016-07-23T07:47:48.747Z,98.2
2016-07-23T07:48:48.756Z,98.49
2016-07-23T07:49:48.763Z,98.49
2016-07-23T07:50:48.767Z,98.58
2016-07-23T07:51:48.732Z,98.2
2016-07-23T07:52:48.761Z,97.96
2016-07-23T07:53:48.783Z,98.1
2016-07-23T07:54:48.756Z,96.84
2016-07-23T07:55:48.970Z,97.04
2016-07-23T07:56:48.766Z,98.58
2016-07-23T07:57:48.753Z,98.3
2016-07-23T07:58:48.755Z,97.33
2016-07-23T07:59:48.768Z,96.75
2016-07-23T08:00:48.755Z,97.13
2016-07-23T08:01:48.777Z,96.84
2016-07-23T08:02:51.058Z,97.23
2016-07-23T08:03:50.215Z,98
2016-07-23T08:04:48.789Z,96.84
2016-07-23T08:05:48.766Z,96.7
2016-07-23T08:06:48.754Z,94.76
2016-07-23T08:07:48.759Z,93.6
2016-07-23T08:08:48.752Z,93.88
2016-07-23T08:09:48.788Z,94.23
2016-07-23T08:10:48.778Z,94.71
2016-07-23T08:11:48.785Z,93.45
2016-07-23T08:12:48.871Z,92.63
2016-07-23T08:13:48.811Z,91.41
2016-07-23T08:14:48.976Z,90.2
2016-07-23T08:15:48.787Z,89.47
2016-07-23T08:16:49.703Z,89.47
2016-07-23T08:17:48.787Z,90.34
2016-07-23T08:18:48.789Z,91.71
2016-07-23T08:19:48.780Z,93.16
2016-07-23T08:20:48.918Z,92.82
2016-07-23T08:21:48.766Z,92.82
2016-07-23T08:22:48.768Z,91.71
2016-07-23T08:23:48.808Z,92.96
2016-07-23T08:24:48.782Z,93.5
2016-07-23T08:25:48.798Z,93.02
2016-07-23T08:26:48.779Z,93.79
2016-07-23T08:27:50.575Z,94.04
2016-07-23T08:28:48.884Z,95.1
2016-07-23T08:29:48.809Z,94.81
2016-07-23T08:30:48.754Z,94.62
2016-07-23T08:31:48.791Z,95.2
2016-07-23T08:32:48.796Z,94.23
2016-07-23T08:33:48.746Z,93.26
2016-07-23T08:35:13.762Z,92.92
2016-07-23T08:35:58.821Z,92.96
2016-07-23T08:36:48.774Z,92.38
2016-07-23T08:37:48.782Z,92.38
2016-07-23T08:38:51.687Z,92.48
2016-07-23T08:39:48.789Z,91.95
2016-07-23T08:40:48.803Z,90.78
2016-07-23T08:41:48.824Z,90.73
2016-07-23T08:42:48.858Z,90.06
2016-07-23T08:43:48.803Z,90.2
2016-07-23T08:44:51.471Z,90.88
2016-07-23T08:45:48.778Z,93.02
2016-07-23T08:46:48.792Z,92.82
2016-07-23T08:47:49.735Z,92.63
2016-07-23T08:48:49.378Z,92.92
2016-07-23T08:49:48.836Z,92.82
2016-07-23T08:50:48.812Z,93.26
2016-07-23T08:51:48.982Z,92.82
2016-07-23T08:52:48.851Z,93.3
2016-07-23T08:53:48.787Z,93.94
2016-07-23T08:54:48.824Z,95
2016-07-23T08:55:48.942Z,96.02
2016-07-23T08:56:48.819Z,95.73
2016-07-23T08:57:48.983Z,95.44
2016-07-23T08:58:48.790Z,97.08
2016-07-23T08:59:48.844Z,96.75
2016-07-23T09:00:50.154Z,96.75
2016-07-23T09:01:50.226Z,96.65
2016-07-23T09:02:48.885Z,97.13
2016-07-23T09:03:48.834Z,96.6
2016-07-23T09:04:48.977Z,96.8
2016-07-23T09:05:48.797Z,97.62
2016-07-23T09:06:50.091Z,97.52
2016-07-23T09:07:48.850Z,97.42
2016-07-23T09:08:48.805Z,96.84
2016-07-23T09:09:49.027Z,95.15
2016-07-23T09:10:48.990Z,94.96
2016-07-23T09:11:50.166Z,94.47
2016-07-23T09:12:48.965Z,95.34
2016-07-23T09:13:51.509Z,96.31
2016-07-23T09:14:50.848Z,96.84
2016-07-23T09:15:48.828Z,96.07
2016-07-23T09:16:48.997Z,96.22
2016-07-23T09:17:49.028Z,95.44
2016-07-23T09:18:48.841Z,94.62
2016-07-23T09:19:49.019Z,94.52
2016-07-23T09:20:48.831Z,94.52
2016-07-23T09:21:48.824Z,95.58
2016-07-23T09:22:48.818Z,95.54
2016-07-23T09:23:48.844Z,95
2016-07-23T09:24:49.104Z,94.9
2016-07-23T09:25:50.002Z,95.39
2016-07-23T09:26:48.853Z,94.81
2016-07-23T09:27:48.825Z,94.42
2016-07-23T09:28:54.171Z,94.32
2016-07-23T09:29:48.953Z,94.13
2016-07-23T09:30:48.796Z,94.42
2016-07-23T09:31:48.908Z,94.62
2016-07-23T09:32:48.829Z,93.74
2016-07-23T09:33:48.874Z,93.74
2016-07-23T09:34:48.903Z,94.71
2016-07-23T09:35:48.889Z,94.71
2016-07-23T09:36:48.817Z,94.27
2016-07-23T09:37:48.826Z,94.18
2016-07-23T09:38:48.860Z,94.18
2016-07-23T09:39:48.855Z,93.6
2016-07-23T09:40:56.086Z,94.42
2016-07-23T09:41:48.845Z,94.62
2016-07-23T09:42:48.876Z,94.42
2016-07-23T09:43:48.843Z,95.2
2016-07-23T09:44:48.989Z,95.73
2016-07-23T09:45:50.179Z,95.25
2016-07-23T09:46:48.835Z,95.92
2016-07-23T09:47:48.860Z,95.54
2016-07-23T09:48:48.827Z,96.12
2016-07-23T09:49:48.826Z,96.89
2016-07-23T09:50:48.850Z,96.12
2016-07-23T09:51:48.857Z,95.92
2016-07-23T09:52:48.855Z,96.99
2016-07-23T09:53:48.844Z,96.5
2016-07-23T09:54:48.829Z,96.5
2016-07-23T09:55:48.884Z,96.5
2016-07-23T09:56:48.821Z,97.08
2016-07-23T09:57:48.834Z,97.81
2016-07-23T09:58:48.896Z,98.39
2016-07-23T09:59:48.824Z,98.3
2016-07-23T10:00:48.827Z,98.39
2016-07-23T10:01:49.003Z,97.33
2016-07-23T10:02:48.889Z,98
2016-07-23T10:03:48.833Z,97.33
2016-07-23T10:04:48.869Z,96.89
2016-07-23T10:05:48.860Z,95.87
2016-07-23T10:06:48.888Z,96.55
2016-07-23T10:07:48.872Z,96.07
2016-07-23T10:08:48.844Z,96.55
2016-07-23T10:09:48.956Z,95.97
2016-07-23T10:10:48.856Z,95.97
2016-07-23T10:11:48.859Z,96.89
2016-07-23T10:12:48.929Z,96.89
2016-07-23T10:13:48.828Z,96.6
2016-07-23T10:14:48.904Z,96.89
2016-07-23T10:15:48.954Z,96.8
2016-07-23T10:16:48.933Z,95.92
2016-07-23T10:17:48.936Z,96.41
2016-07-23T10:18:48.874Z,96.65
2016-07-23T10:19:48.874Z,97.42
2016-07-23T10:20:48.873Z,97.42
2016-07-23T10:21:48.884Z,97.42
2016-07-23T10:22:48.843Z,97.81
2016-07-23T10:23:48.873Z,97.33
2016-07-23T10:24:48.834Z,97.08
2016-07-23T10:25:49.592Z,97.47
2016-07-23T10:26:52.072Z,98
2016-07-23T10:27:48.855Z,97.52
2016-07-23T10:28:49.189Z,98.3
2016-07-23T10:29:48.895Z,98.2
2016-07-23T10:30:48.868Z,98.39
2016-07-23T10:31:48.949Z,98.68
2016-07-23T10:32:48.898Z,98.97
2016-07-23T10:33:48.870Z,99.55
2016-07-23T10:34:48.892Z,99.07
2016-07-23T10:35:48.869Z,99.07
2016-07-23T10:36:48.917Z,99.16
2016-07-23T10:37:48.866Z,99.16
2016-07-23T10:38:48.878Z,98.78
2016-07-23T10:39:48.867Z,99.26
2016-07-23T10:40:48.884Z,98.49
2016-07-23T10:41:48.848Z,98.97
2016-07-23T10:42:48.886Z,99.55
2016-07-23T10:43:48.857Z,99.07
2016-07-23T10:44:50.462Z,99.16
2016-07-23T10:45:48.884Z,98.78
2016-07-23T10:46:48.932Z,97.91
2016-07-23T10:47:48.874Z,94.57
2016-07-23T10:48:48.883Z,94.96
2016-07-23T10:49:48.894Z,93.89
2016-07-23T11:02:06.513Z,88.37
2016-07-23T11:03:06.460Z,88.85
2016-07-23T11:04:06.504Z,88.53
2016-07-23T11:05:06.468Z,89.05
2016-07-23T11:06:06.492Z,89.05
2016-07-23T11:07:06.496Z,87.89
2016-07-23T11:08:06.446Z,87.21
2016-07-23T11:09:06.468Z,87.41
2016-07-23T11:10:06.531Z,87.64
2016-07-23T11:11:06.526Z,87.93
2016-07-23T11:12:06.672Z,88.76
2016-07-23T11:13:06.459Z,88.76
2016-07-23T11:14:06.457Z,88.47
2016-07-23T11:15:06.521Z,88.09
2016-07-23T11:16:06.470Z,88.85
2016-07-23T11:17:06.476Z,89
2016-07-23T11:18:06.456Z,89.15
2016-07-23T11:19:06.477Z,88.85
2016-07-23T11:20:06.488Z,87.79
2016-07-23T11:21:06.502Z,87.89
2016-07-23T11:22:06.574Z,87.79
2016-07-23T11:23:06.541Z,87.12
2016-07-23T11:24:06.492Z,86.58
2016-07-23T11:25:06.457Z,85.61
2016-07-23T11:26:06.549Z,86.54
2016-07-23T11:27:06.519Z,87.02
2016-07-23T11:28:06.459Z,86.87
2016-07-23T11:29:06.505Z,86.77
2016-07-23T11:30:06.464Z,85.71
2016-07-23T11:31:06.519Z,85.61
2016-07-23T11:32:06.575Z,87.65
2016-07-23T11:33:06.722Z,88.43
2016-07-23T11:34:06.481Z,88.53
2016-07-23T11:35:06.525Z,87.6
2016-07-23T11:36:06.512Z,86.34
2016-07-23T11:37:06.490Z,86.92
2016-07-23T11:38:06.561Z,88.18
2016-07-23T11:39:06.494Z,86.24
2016-07-23T11:40:06.461Z,85.8
2016-07-23T11:41:06.496Z,85.03
2016-07-23T11:42:06.500Z,85.07
2016-07-23T11:43:06.509Z,85.27
2016-07-23T11:44:06.506Z,84.3
2016-07-23T11:45:06.483Z,85.61
2016-07-23T11:46:06.503Z,86.19
2016-07-23T11:47:06.687Z,85.13
2016-07-23T11:48:06.494Z,84.83
2016-07-23T11:49:06.489Z,84.55
2016-07-23T11:50:06.496Z,83.58
2016-07-23T11:51:06.646Z,83.77
2016-07-23T11:52:06.520Z,83.52
2016-07-23T11:53:06.466Z,82.65
2016-07-23T11:54:06.497Z,83.42
2016-07-23T11:55:06.506Z,83.23
2016-07-23T11:56:06.598Z,83.58
2016-07-23T11:57:06.515Z,83.38
2016-07-23T11:58:06.816Z,84.35
2016-07-23T11:59:06.492Z,83.77
2016-07-23T12:00:06.539Z,84.93
2016-07-23T12:01:06.531Z,86.09
2016-07-23T12:02:06.485Z,85.31
2016-07-23T12:03:06.492Z,84.99
2016-07-23T12:04:06.519Z,85.37
2016-07-23T12:05:06.528Z,86.05
2016-07-23T12:06:06.932Z,85.51
2016-07-23T12:07:06.496Z,84.99
2016-07-23T12:08:06.689Z,84.5
2016-07-23T12:09:06.555Z,84.99
2016-07-23T12:10:06.589Z,85.86
2016-07-23T12:11:06.560Z,86.09
2016-07-23T12:12:06.531Z,84.74
2016-07-23T12:13:06.776Z,86.15
2016-07-23T12:14:13.068Z,85.18
2016-07-23T12:15:06.492Z,84.41
2016-07-23T12:16:06.555Z,84.06
2016-07-23T12:17:06.489Z,83.58
2016-07-23T12:18:06.505Z,83.52
2016-07-23T12:19:06.516Z,83.13
2016-07-23T12:20:06.492Z,82.65
2016-07-23T12:21:06.505Z,83.91
2016-07-23T12:22:06.498Z,83.91
2016-07-23T12:23:06.515Z,83.37
2016-07-23T12:24:07.216Z,83.72
2016-07-23T12:25:06.508Z,83.85
2016-07-23T12:26:06.540Z,85.36
2016-07-23T12:27:06.493Z,85.27
2016-07-23T12:28:06.511Z,86
2016-07-23T12:29:06.574Z,86.48
2016-07-23T12:30:06.509Z,85.9
2016-07-23T12:31:06.531Z,86.58
2016-07-23T12:32:06.502Z,84.83
2016-07-23T12:33:06.562Z,86.04
2016-07-23T12:34:06.517Z,86.62
2016-07-23T12:35:06.559Z,84.97
2016-07-23T12:36:06.531Z,84.3
2016-07-23T12:37:06.509Z,85.27
2016-07-23T12:38:06.522Z,84.34
2016-07-23T12:39:06.520Z,85.17
2016-07-23T12:40:06.934Z,85.9
2016-07-23T12:41:06.532Z,87.26
2016-07-23T12:42:06.508Z,86.29
2016-07-23T12:43:06.527Z,84.45
2016-07-23T12:44:06.542Z,83.03
2016-07-23T12:45:06.558Z,84.14
2016-07-23T12:46:06.527Z,84.72
2016-07-23T12:47:06.562Z,84.05
2016-07-23T12:48:06.508Z,85.07
2016-07-23T12:49:06.502Z,85.9
2016-07-23T12:50:06.529Z,86.38
2016-07-23T12:51:06.533Z,85.8
2016-07-23T12:52:06.496Z,84.49
2016-07-23T12:53:06.537Z,84.34
2016-07-23T12:54:06.604Z,84.63
2016-07-23T12:55:06.542Z,84.34
2016-07-23T12:56:06.529Z,83.95
2016-07-23T12:57:06.535Z,82.44
2016-07-23T12:58:06.559Z,80.69
2016-07-23T12:59:06.537Z,80.93
2016-07-23T13:00:06.668Z,80.73
2016-07-23T13:01:07.228Z,80.93
2016-07-23T13:02:08.766Z,80.69
2016-07-23T13:03:06.558Z,79.86
2016-07-23T13:04:06.530Z,80.09
2016-07-23T13:05:06.531Z,79.9
2016-07-23T13:06:06.588Z,78.09